• Join FlightAware (Why Join?)
  • Login
  • US Flag 
11:52PM EDT


 

Airport Tracker/Info


-or-


 

Live Flight TrackerFlight Track Log ✈ CTL14A ✈ 08-Aug-2012 ✈ KPWK - KOSU

Flight Track Log - Related Links

Times and Time Zones

All times are in EDT time to prevent confusion due to time zone crossing. See the CTL14A flight status page for this flight to view local times or setup timezone preferences in your user account.

Time Position Orientation Groundspeed Altitude Reporting Facility
EDT Latitude Longitude Course Direction KTS MPH feet Rate Location/Type
12:17AM 42.1667 -87.8000 90° East 154 177 1,900  Level Chicago TRACON
12:18AM 42.1667 -87.7667 131° Southeast 133 153 2,800 780 Climbing Chicago TRACON
12:19AM 42.1475 -87.7367 118° Southeast 124 143 3,200 540 Climbing Chicago Center
12:20AM 42.1300 -87.6925 125° Southeast 124 143 3,800 660 Climbing Chicago Center
12:20AM 42.1167 -87.6667 114° Southeast 133 153 4,100 720 Climbing Chicago TRACON
12:21AM 42.1000 -87.6167 132° Southeast 135 155 4,900 540 Climbing Chicago TRACON
12:22AM 42.0933 -87.6067 117° Southeast 132 152 5,100 420 Climbing Chicago Center
12:23AM 42.0758 -87.5594 123° Southeast 138 159 5,600 420 Climbing Chicago Center
12:24AM 42.0544 -87.5153 107° East 146 168 6,000 420 Climbing Chicago Center
12:25AM 42.0408 -87.4569 121° Southeast 151 174 6,500 420 Climbing Chicago Center
12:26AM 42.0214 -87.4131 121° Southeast 151 174 6,900 180 Climbing Chicago Center
12:27AM 41.9975 -87.3606 119° Southeast 156 180 6,900  Level Chicago Center
12:28AM 41.9736 -87.3028 119° Southeast 168 193 6,900  Level Chicago Center
12:29AM 41.9497 -87.2447 117° Southeast 174 200 7,000  Climbing Chicago Center
12:30AM 41.9278 -87.1869 117° Southeast 174 200 6,900  Descending Chicago Center
12:31AM 41.9058 -87.1289 123° Southeast 174 200 7,000  Climbing Chicago Center
12:32AM 41.8797 -87.0742 121° Southeast 174 200 7,000 120 Level Chicago Center
12:33AM 41.8556 -87.0192 118° Southeast 179 206 7,300 300 Climbing Chicago Center
12:34AM 41.8381 -86.9753 120° Southeast 156 180 7,600 420 Climbing Chicago Center
12:35AM 41.8183 -86.9286 118° Southeast 142 163 8,200 600 Climbing Chicago Center
12:36AM 41.8008 -86.8847 120° Southeast 137 158 8,800 300 Climbing Chicago Center
12:37AM 41.7811 -86.8381 123° Southeast 137 158 8,900 60 Climbing Chicago Center
12:38AM 41.7525 -86.7781 124° Southeast 155 178 9,000  Climbing Chicago Center
12:39AM 41.7242 -86.7208 119° Southeast 170 196 9,000 -60 Level Chicago Center
12:40AM 41.6978 -86.6578 120° Southeast 185 213 8,900  Descending Chicago Center
12:41AM 41.6733 -86.6006 119° Southeast 185 213 9,000  Climbing Chicago Center
12:42AM 41.6492 -86.5431 122° Southeast 185 213 8,900 -60 Descending Chicago Center
12:43AM 41.6225 -86.4858 119° Southeast 179 206 8,900  Level Chicago Center
12:44AM 41.5981 -86.4258 122° Southeast 179 206 8,900  Level Chicago Center
12:45AM 41.5717 -86.3689 119° Southeast 179 206 8,900  Level Chicago Center
12:46AM 41.5472 -86.3089 119° Southeast 179 206 8,900  Level Chicago Center
12:47AM 41.5225 -86.2492 121° Southeast 179 206 8,900  Level Chicago Center
12:48AM 41.4981 -86.1947 121° Southeast 184 212 8,900  Level Chicago Center
12:49AM 41.4714 -86.1350 121° Southeast 184 212 8,900  Level Chicago Center
12:50AM 41.4447 -86.0756 120° Southeast 184 212 9,000  Climbing Chicago Center
12:51AM 41.4203 -86.0186 121° Southeast 179 206 9,000  Level Chicago Center
12:52AM 41.3933 -85.9589 121° Southeast 179 206 9,000 -60 Level Chicago Center
12:53AM 41.3667 -85.8994 121° Southeast 179 206 8,900 -60 Descending Chicago Center
12:54AM 41.3397 -85.8400 116° Southeast 179 206 8,900 -60 Level Chicago Center
12:55AM 41.3169 -85.7778 122° Southeast 179 206 8,800 -420 Descending Chicago Center
12:56AM 41.2881 -85.7158 122° Southeast 185 213 8,100 -720 Descending Chicago Center
12:57AM 41.2567 -85.6483 123° Southeast 196 226 7,400 -600 Descending Chicago Center
12:58AM 41.2253 -85.5839 121° Southeast 201 231 7,000 -240 Descending Chicago Center
12:59AM 41.1983 -85.5247 120° Southeast 206 237 7,000  Level Chicago Center
01:00AM 41.1711 -85.4628 121° Southeast 201 231 7,000  Level Chicago Center
01:12AM 40.8656 -84.7972 124° Southeast 178 205 7,000 -60 Level Indianapolis Center
01:13AM 40.8389 -84.7447 121° Southeast 185 213 6,900 -60 Descending Indianapolis Center
01:14AM 40.8167 -84.6950 120° Southeast 179 206 6,900  Level Indianapolis Center
01:15AM 40.7922 -84.6397 122° Southeast 179 206 7,000  Climbing Indianapolis Center
01:16AM 40.7656 -84.5844 121° Southeast 179 206 7,000  Level Indianapolis Center
01:17AM 40.7389 -84.5267 121° Southeast 179 206 7,000 60 Level Indianapolis Center
01:17AM 40.7286 -84.5044 123° Southeast 182 209 7,100 -120 Climbing Indianapolis Center
01:18AM 40.7122 -84.4714 126° Southeast 184 212 6,900 -120 Descending Indianapolis Center
01:18AM 40.6958 -84.4411 116° Southeast 182 209 7,000  Climbing Indianapolis Center
01:19AM 40.6856 -84.4136 126° Southeast 184 212 6,900  Descending Indianapolis Center
01:19AM 40.6733 -84.3917 121° Southeast 178 205 7,000  Climbing Indianapolis Center
01:20AM 40.6569 -84.3558 120° Southeast 184 212 6,900  Descending Indianapolis Center
01:20AM 40.6486 -84.3367 118° Southeast 175 201 7,000  Climbing Indianapolis Center
01:21AM 40.6342 -84.3008 125° Southeast 184 212 6,900  Descending Indianapolis Center
01:21AM 40.6239 -84.2817 120° Southeast 172 198 7,000  Climbing Indianapolis Center
01:22AM 40.6094 -84.2486 126° Southeast 174 200 6,900  Descending Indianapolis Center
01:22AM 40.5972 -84.2267 114° Southeast 169 194 7,000  Climbing Indianapolis Center
01:23AM 40.5869 -84.1964 131° Southeast 169 194 6,900  Descending Indianapolis Center
01:23AM 40.5725 -84.1744 114° Southeast 168 193 7,000  Climbing Indianapolis Center
01:24AM 40.5622 -84.1444 135° Southeast 169 194 6,900  Descending Indianapolis Center
01:24AM 40.5478 -84.1253 112° Southeast 165 190 7,000  Climbing Indianapolis Center
01:25AM 40.5375 -84.0922 130° Southeast 169 194 6,900 60 Descending Indianapolis Center
01:25AM 40.5272 -84.0758 113° Southeast 167 192 7,100 180 Climbing Indianapolis Center
01:26AM 40.5147 -84.0375 127° Southeast 169 194 7,100  Level Indianapolis Center
01:26AM 40.5022 -84.0156 122° Southeast 171 197 7,100  Level Indianapolis Center
01:27AM 40.4878 -83.9856 123° Southeast 164 189 7,100 -120 Level Indianapolis Center
01:27AM 40.4756 -83.9608 119° Southeast 175 201 7,000 -120 Descending Indianapolis Center
01:28AM 40.4631 -83.9308 122° Southeast 164 189 7,000  Level Indianapolis Center
01:28AM 40.4528 -83.9089 117° Southeast 174 200 7,000  Level Indianapolis Center
01:29AM 40.4422 -83.8817 131° Southeast 164 189 7,000 -360 Level Indianapolis Center
01:29AM 40.4278 -83.8597 122° Southeast 171 197 6,700 -720 Descending Indianapolis Center
01:30AM 40.3989 -83.7997 121° Southeast 192 221 6,000 -660 Descending Indianapolis Center
01:31AM 40.3697 -83.7369 119° Southeast 197 227 5,400 -480 Descending Indianapolis Center
01:32AM 40.3428 -83.6742 121° Southeast 190 219 5,100 -240 Descending Indianapolis Center
01:33AM 40.3178 -83.6197 120° Southeast 180 207 5,000 -360 Descending Indianapolis Center
01:34AM 40.2906 -83.5569 118° Southeast 187 215 4,400 -540 Descending Indianapolis Center
01:35AM 40.2697 -83.5053 118° Southeast 188 216 4,000 -420 Descending Indianapolis Center
01:36AM 40.2428 -83.4400 123° Southeast 187 215 3,600 -420 Descending Indianapolis Center
01:37AM 40.2156 -83.3858 123° Southeast 182 209 3,200 -420 Descending Indianapolis Center